Time;durP1;ratioP1;P1;durP2;ratioP2;P2;SDS_P1;SDS_P2;PMS_P1;PMS_P2;Temp;Humidity;BMP_temperature;BMP_pressure;BME280_temperature;BME280_humidity;BME280_pressure;Samples;Min_cycle;Max_cycle;Signal;HPM_P1;HPM_P2
2022/03/27 00:00:00;;;;;;;23.57;15.67;;;;;;;2.02;100.00;102257.38;5010091;28;20193;-76
2022/03/27 00:02:27;;;;;;;23.23;15.90;;;;;;;1.97;100.00;102263.13;5010237;28;20197;-75
2022/03/27 00:04:54;;;;;;;18.87;13.00;;;;;;;1.96;100.00;102263.97;5015531;28;20537;-76
2022/03/27 00:07:20;;;;;;;17.97;12.37;;;;;;;2.00;100.00;102268.41;5008413;28;20201;-75
2022/03/27 00:09:47;;;;;;;16.63;11.07;;;;;;;2.02;100.00;102266.75;5015120;28;20204;-75
2022/03/27 00:12:13;;;;;;;17.07;10.77;;;;;;;1.86;100.00;102265.34;5006775;28;20215;-76
2022/03/27 00:14:39;;;;;;;13.93;9.13;;;;;;;1.74;100.00;102270.03;5012525;28;20193;-74
2022/03/27 00:17:06;;;;;;;17.37;9.30;;;;;;;1.76;100.00;102268.38;5007397;28;20584;-74
2022/03/27 00:19:33;;;;;;;15.63;9.20;;;;;;;1.81;100.00;102266.88;5022157;28;20236;-76
2022/03/27 00:22:00;;;;;;;14.50;8.73;;;;;;;1.87;100.00;102269.69;5010092;28;20188;-75
2022/03/27 00:24:27;;;;;;;12.60;8.93;;;;;;;1.75;100.00;102266.66;5011202;28;20200;-75
2022/03/27 00:26:53;;;;;;;12.87;8.83;;;;;;;1.70;100.00;102269.91;5007388;28;20546;-76
2022/03/27 00:29:22;;;;;;;14.13;8.13;;;;;;;1.67;100.00;102266.34;5013124;28;20279;-75
2022/03/27 00:31:48;;;;;;;11.83;8.73;;;;;;;1.65;100.00;102263.75;5011178;28;20202;-74
2022/03/27 00:34:15;;;;;;;13.27;8.10;;;;;;;1.66;100.00;102273.22;5010569;28;20201;-75
2022/03/27 00:36:42;;;;;;;11.53;7.87;;;;;;;1.58;100.00;102277.19;5005324;28;20222;-76
2022/03/27 00:39:09;;;;;;;11.93;7.70;;;;;;;1.63;100.00;102275.66;5006777;28;20605;-75
2022/03/27 00:41:35;;;;;;;12.33;7.53;;;;;;;1.48;100.00;102273.41;5005758;28;20204;-75
2022/03/27 00:44:01;;;;;;;12.50;8.17;;;;;;;1.42;100.00;102272.28;5007523;28;20197;-75
2022/03/27 00:46:28;;;;;;;11.83;7.60;;;;;;;1.45;100.00;102275.00;5011105;28;20221;-75
2022/03/27 00:48:54;;;;;;;12.30;7.43;;;;;;;1.49;100.00;102269.13;5011082;28;20192;-75
2022/03/27 00:51:21;;;;;;;10.73;6.90;;;;;;;1.48;100.00;102273.41;5009541;28;20201;-75
2022/03/27 00:53:49;;;;;;;12.33;7.37;;;;;;;1.44;100.00;102265.50;5006253;28;20206;-75
2022/03/27 00:56:16;;;;;;;14.13;7.40;;;;;;;1.39;100.00;102272.16;5012985;28;20292;-74
2022/03/27 00:58:42;;;;;;;13.20;8.00;;;;;;;1.33;100.00;102258.25;5007898;28;20551;-76
2022/03/27 01:01:17;;;;;;;12.90;7.80;;;;;;;1.33;100.00;102263.41;5009438;28;20193;-76
2022/03/27 01:03:47;;;;;;;12.93;7.67;;;;;;;1.26;100.00;102271.69;5007028;28;20191;-76
2022/03/27 01:06:24;;;;;;;12.87;7.90;;;;;;;1.26;100.00;102274.28;5011606;28;20213;-75
2022/03/27 01:11:37;;;;;;;11.73;7.07;;;;;;;1.10;100.00;102275.38;5007780;28;20615;-75
2022/03/27 01:14:03;;;;;;;11.30;7.00;;;;;;;1.13;100.00;102265.22;5016595;28;20291;-76
2022/03/27 01:16:36;;;;;;;10.73;6.93;;;;;;;0.99;100.00;102271.53;5004116;28;20239;-76
2022/03/27 01:19:04;;;;;;;12.23;6.83;;;;;;;1.10;100.00;102264.22;5009321;28;20281;-74
2022/03/27 01:21:31;;;;;;;11.37;6.70;;;;;;;0.97;100.00;102262.88;5009033;28;20205;-75
2022/03/27 01:23:58;;;;;;;10.63;6.83;;;;;;;0.97;100.00;102259.41;5008250;28;20192;-76
2022/03/27 01:26:25;;;;;;;11.73;6.40;;;;;;;1.07;100.00;102258.97;5012570;28;20216;-75
2022/03/27 01:28:52;;;;;;;9.57;6.43;;;;;;;1.01;100.00;102264.75;5008138;28;20204;-75
2022/03/27 01:31:18;;;;;;;12.30;7.30;;;;;;;0.99;100.00;102263.81;5009181;28;20705;-74
2022/03/27 01:33:45;;;;;;;11.03;7.10;;;;;;;0.91;100.00;102263.50;5008735;28;20456;-75
2022/03/27 01:36:12;;;;;;;10.80;6.97;;;;;;;0.76;100.00;102265.47;5011934;28;20213;-75
2022/03/27 01:38:40;;;;;;;10.60;6.67;;;;;;;0.93;100.00;102269.59;5010182;28;20230;-75
2022/03/27 01:41:06;;;;;;;12.07;6.87;;;;;;;0.68;100.00;102269.41;5008658;28;20227;-75
2022/03/27 01:43:33;;;;;;;11.23;6.70;;;;;;;0.54;100.00;102268.84;5012078;28;20200;-75
2022/03/27 01:45:59;;;;;;;13.23;7.63;;;;;;;0.52;100.00;102270.47;5009406;28;20221;-75
2022/03/27 01:48:26;;;;;;;14.97;8.73;;;;;;;0.53;100.00;102265.41;5007904;28;20266;-75
2022/03/27 01:51:00;;;;;;;12.23;8.10;;;;;;;0.61;100.00;102265.72;5015278;28;20200;-75
2022/03/27 01:53:26;;;;;;;14.63;9.13;;;;;;;0.60;100.00;102263.97;5009999;28;20673;-75
2022/03/27 01:55:54;;;;;;;16.10;9.70;;;;;;;0.56;100.00;102260.41;5005518;28;20217;-75
2022/03/27 01:58:20;;;;;;;16.40;9.67;;;;;;;0.54;100.00;102259.44;5006404;28;20207;-75
2022/03/27 02:00:47;;;;;;;16.47;10.50;;;;;;;0.57;100.00;102268.97;5002106;28;20200;-75
2022/03/27 02:03:13;;;;;;;17.27;10.37;;;;;;;0.60;100.00;102265.63;5009158;28;20204;-75
2022/03/27 02:05:40;;;;;;;17.87;10.07;;;;;;;0.42;100.00;102265.75;5008177;28;20243;-75
2022/03/27 02:08:08;;;;;;;15.33;9.67;;;;;;;0.37;100.00;102273.28;5014529;28;20315;-75
2022/03/27 02:10:35;;;;;;;15.90;10.80;;;;;;;0.34;100.00;102268.88;5010621;28;20679;-75
2022/03/27 02:13:03;;;;;;;16.57;10.33;;;;;;;0.33;100.00;102277.38;5012525;28;20197;-76
2022/03/27 02:15:29;;;;;;;15.53;10.20;;;;;;;0.33;100.00;102274.81;5008917;28;20240;-75
2022/03/27 02:17:58;;;;;;;17.47;10.53;;;;;;;0.44;100.00;102284.66;5004017;28;20205;-75
2022/03/27 02:20:24;;;;;;;16.87;9.70;;;;;;;0.36;100.00;102289.47;5010224;28;20732;-75
2022/03/27 02:22:51;;;;;;;13.57;8.80;;;;;;;0.22;100.00;102294.03;5009487;28;20231;-75
2022/03/27 02:25:18;;;;;;;15.97;9.73;;;;;;;0.28;100.00;102288.28;5006637;28;20252;-75
2022/03/27 02:27:45;;;;;;;14.33;9.00;;;;;;;0.37;100.00;102288.69;5012081;28;20208;-75
2022/03/27 02:30:15;;;;;;;16.33;9.10;;;;;;;0.43;100.00;102286.38;5009837;28;20218;-75
2022/03/27 02:32:41;;;;;;;15.90;9.23;;;;;;;0.32;100.00;102288.47;5006765;28;20762;-75
2022/03/27 02:35:08;;;;;;;13.87;8.83;;;;;;;0.33;100.00;102290.22;5006706;28;20220;-75
2022/03/27 02:37:35;;;;;;;15.63;9.60;;;;;;;0.36;100.00;102289.47;5008164;28;20240;-76
2022/03/27 02:40:01;;;;;;;12.47;9.13;;;;;;;0.33;100.00;102289.34;5006421;28;20617;-75
2022/03/27 02:42:28;;;;;;;13.17;8.80;;;;;;;0.35;100.00;102296.31;5010514;28;20212;-75
2022/03/27 02:44:54;;;;;;;17.07;9.20;;;;;;;0.20;100.00;102285.41;5006682;28;20701;-74
2022/03/27 02:47:22;;;;;;;17.37;9.03;;;;;;;0.21;100.00;102293.97;5002852;28;20201;-76
2022/03/27 02:49:48;;;;;;;15.43;8.57;;;;;;;0.16;100.00;102296.34;5007230;28;20196;-75
2022/03/27 02:52:16;;;;;;;13.97;8.87;;;;;;;0.27;100.00;102296.81;5012725;28;20210;-75
2022/03/27 02:54:43;;;;;;;12.40;8.17;;;;;;;0.35;100.00;102296.31;5003796;28;20189;-75
2022/03/27 02:57:09;;;;;;;12.80;7.80;;;;;;;0.18;100.00;102300.72;5008096;28;20221;-75
2022/03/27 02:59:36;;;;;;;17.53;10.27;;;;;;;0.13;100.00;102304.75;5002656;28;20208;-75
2022/03/27 03:02:04;;;;;;;17.93;9.60;;;;;;;0.17;100.00;102296.38;5009162;28;20196;-75
2022/03/27 03:04:34;;;;;;;14.47;9.10;;;;;;;0.12;100.00;102297.91;5011393;28;20791;-76
2022/03/27 03:07:01;;;;;;;14.83;8.60;;;;;;;-0.04;100.00;102293.75;5007112;28;20217;-75
2022/03/27 03:09:28;;;;;;;14.30;8.57;;;;;;;-0.06;100.00;102302.22;5012682;28;20275;-75
2022/03/27 03:11:55;;;;;;;13.50;8.33;;;;;;;-0.16;100.00;102313.72;5012190;28;20653;-75
2022/03/27 03:14:21;;;;;;;12.17;8.03;;;;;;;-0.13;100.00;102307.88;5012051;28;20202;-75
2022/03/27 03:16:49;;;;;;;16.07;8.27;;;;;;;-0.16;100.00;102302.59;5010697;28;20234;-75
2022/03/27 03:19:16;;;;;;;13.57;7.77;;;;;;;-0.12;100.00;102305.38;5020593;28;20204;-76
2022/03/27 03:21:45;;;;;;;13.90;7.90;;;;;;;-0.29;100.00;102306.31;5015676;28;20192;-75
2022/03/27 03:24:11;;;;;;;14.63;8.40;;;;;;;-0.39;100.00;102297.31;5020857;28;20428;-76
2022/03/27 03:26:38;;;;;;;14.17;8.30;;;;;;;-0.52;100.00;102302.69;5018256;28;20224;-75
2022/03/27 03:29:05;;;;;;;13.73;8.47;;;;;;;-0.44;100.00;102304.81;5013079;28;20210;-75
2022/03/27 03:31:32;;;;;;;12.77;8.10;;;;;;;-0.41;100.00;102309.19;5013302;28;20740;-74
2022/03/27 03:33:59;;;;;;;10.57;7.47;;;;;;;-0.54;100.00;102312.00;5017316;28;20201;-75
2022/03/27 03:36:25;;;;;;;12.77;8.07;;;;;;;-0.48;100.00;102309.72;5010245;28;20274;-75
2022/03/27 03:38:53;;;;;;;13.87;8.57;;;;;;;-0.30;100.00;102313.13;5006366;28;20455;-75
2022/03/27 03:41:19;;;;;;;12.47;8.37;;;;;;;-0.30;100.00;102310.56;5008451;28;20451;-75
2022/03/27 03:43:46;;;;;;;15.53;8.23;;;;;;;-0.40;100.00;102318.66;5008926;28;20200;-76
2022/03/27 03:46:12;;;;;;;13.20;8.47;;;;;;;-0.38;100.00;102317.88;5005946;28;20225;-74
2022/03/27 03:48:39;;;;;;;14.70;8.53;;;;;;;-0.48;100.00;102308.03;5006757;28;20208;-74
2022/03/27 03:51:06;;;;;;;13.20;8.50;;;;;;;-0.51;100.00;102309.56;5003411;28;20291;-75
2022/03/27 03:53:32;;;;;;;15.43;8.97;;;;;;;-0.61;100.00;102306.59;5012016;28;20712;-74
2022/03/27 03:56:01;;;;;;;13.93;8.57;;;;;;;-0.68;100.00;102319.03;5011018;28;20219;-74
2022/03/27 03:58:27;;;;;;;12.90;8.23;;;;;;;-0.72;100.00;102309.44;5008333;28;20689;-75
2022/03/27 04:00:53;;;;;;;14.30;8.43;;;;;;;-0.77;100.00;102309.25;5008679;28;20451;-75
2022/03/27 04:03:20;;;;;;;14.13;8.60;;;;;;;-0.65;100.00;102317.50;5001578;28;20451;-75
2022/03/27 04:05:47;;;;;;;13.60;7.67;;;;;;;-0.62;100.00;102320.19;5008389;28;20228;-74
2022/03/27 04:08:14;;;;;;;15.77;8.50;;;;;;;-0.50;100.00;102319.03;5012448;28;20204;-74
2022/03/27 04:10:41;;;;;;;17.47;9.23;;;;;;;-0.63;100.00;102317.59;5004149;28;20455;-75
2022/03/27 04:13:09;;;;;;;12.33;8.17;;;;;;;-0.78;100.00;102315.16;5009029;28;20463;-75
2022/03/27 04:15:35;;;;;;;14.47;8.57;;;;;;;-0.68;100.00;102317.34;5009224;28;20684;-75
2022/03/27 04:18:02;;;;;;;16.73;8.90;;;;;;;-0.80;100.00;102327.88;5011111;28;20208;-76
2022/03/27 04:20:28;;;;;;;17.40;9.33;;;;;;;-0.85;100.00;102323.38;5011097;28;20203;-74
2022/03/27 04:22:55;;;;;;;16.40;8.67;;;;;;;-0.90;100.00;102314.56;5011458;28;20564;-74
2022/03/27 04:25:21;;;;;;;16.53;9.07;;;;;;;-0.85;100.00;102318.25;5009705;28;20485;-74
2022/03/27 04:27:48;;;;;;;13.57;8.67;;;;;;;-0.80;100.00;102320.22;5009528;28;20205;-75
2022/03/27 04:30:16;;;;;;;13.30;8.10;;;;;;;-0.86;100.00;102312.25;5007582;28;20482;-74
2022/03/27 04:32:42;;;;;;;16.60;8.53;;;;;;;-0.87;100.00;102314.72;5003188;28;20199;-77
2022/03/27 04:35:10;;;;;;;14.37;8.83;;;;;;;-0.67;100.00;102321.69;5010756;28;20240;-75
2022/03/27 04:37:40;;;;;;;14.43;8.87;;;;;;;-0.67;100.00;102326.81;5010673;28;20208;-76
2022/03/27 04:40:07;;;;;;;13.50;8.80;;;;;;;-0.79;100.00;102319.41;5006518;28;20455;-75
2022/03/27 04:42:34;;;;;;;14.93;10.07;;;;;;;-0.63;100.00;102313.31;5007520;28;20543;-74
2022/03/27 04:45:00;;;;;;;17.47;8.97;;;;;;;-0.56;100.00;102317.06;5014642;28;20200;-76
2022/03/27 04:47:28;;;;;;;25.43;15.53;;;;;;;-0.57;100.00;102318.72;5012446;28;20192;-74
2022/03/27 04:49:54;;;;;;;27.00;12.60;;;;;;;-0.38;100.00;102322.16;5017655;28;20683;-74
2022/03/27 04:52:21;;;;;;;25.20;10.80;;;;;;;-0.32;100.00;102309.59;5008725;28;20204;-74
2022/03/27 04:54:47;;;;;;;19.27;10.30;;;;;;;-0.33;100.00;102319.81;5004788;28;20199;-74
2022/03/27 04:57:14;;;;;;;24.00;10.30;;;;;;;-0.39;100.00;102326.41;5008151;28;21043;-76
2022/03/27 04:59:40;;;;;;;24.63;10.27;;;;;;;-0.16;100.00;102320.56;5004942;28;20633;-75
2022/03/27 05:02:06;;;;;;;20.03;9.33;;;;;;;-0.09;100.00;102312.31;5009047;28;20207;-74
2022/03/27 05:04:34;;;;;;;24.00;10.00;;;;;;;-0.11;100.00;102307.13;5008049;28;20224;-74
2022/03/27 05:07:00;;;;;;;23.53;10.00;;;;;;;-0.05;100.00;102319.38;5009588;28;20220;-74
2022/03/27 05:09:27;;;;;;;21.37;10.63;;;;;;;0.09;100.00;102310.59;5000328;28;20197;-74
2022/03/27 05:11:55;;;;;;;29.73;9.93;;;;;;;0.06;100.00;102307.00;5005123;28;20192;-74
2022/03/27 05:14:21;;;;;;;21.60;10.43;;;;;;;0.15;100.00;102312.53;5012856;28;20231;-75
2022/03/27 05:16:48;;;;;;;17.53;10.43;;;;;;;0.13;100.00;102315.03;5010173;28;20271;-73
2022/03/27 05:19:14;;;;;;;34.03;10.10;;;;;;;0.06;100.00;102307.00;5013593;28;20203;-75
2022/03/27 05:21:42;;;;;;;17.30;10.07;;;;;;;-0.01;100.00;102310.97;5008977;28;20208;-75
2022/03/27 05:24:09;;;;;;;25.80;10.77;;;;;;;0.07;100.00;102319.91;5009085;28;20208;-75
2022/03/27 05:26:36;;;;;;;22.30;10.27;;;;;;;0.11;100.00;102326.91;5008355;28;20212;-75
2022/03/27 05:29:03;;;;;;;17.97;9.83;;;;;;;0.16;100.00;102320.28;5009070;28;20205;-74
2022/03/27 05:31:30;;;;;;;17.43;10.27;;;;;;;0.22;100.00;102326.50;5009472;28;20993;-74
2022/03/27 05:33:56;;;;;;;16.63;9.90;;;;;;;0.27;100.00;102332.72;5005131;28;20209;-76
2022/03/27 05:36:23;;;;;;;16.20;8.90;;;;;;;0.27;100.00;102335.28;5009267;28;20240;-74
2022/03/27 05:38:51;;;;;;;17.77;9.47;;;;;;;0.29;100.00;102336.22;5009312;28;20200;-74
2022/03/27 05:41:18;;;;;;;16.00;9.23;;;;;;;0.43;100.00;102341.97;5014497;28;20280;-74
2022/03/27 05:43:45;;;;;;;19.27;9.97;;;;;;;0.36;100.00;102331.41;5006724;28;20212;-75
2022/03/27 05:46:11;;;;;;;17.53;9.70;;;;;;;0.48;100.00;102330.19;5016716;28;20228;-75
2022/03/27 05:48:37;;;;;;;21.27;9.93;;;;;;;0.51;100.00;102328.63;5004573;28;20578;-75
2022/03/27 05:51:04;;;;;;;18.50;9.83;;;;;;;0.36;100.00;102336.53;5014909;28;20204;-75
2022/03/27 05:53:31;;;;;;;15.53;9.47;;;;;;;0.52;100.00;102334.63;5008027;28;20216;-75
2022/03/27 05:55:59;;;;;;;16.27;9.70;;;;;;;0.53;100.00;102337.28;5007251;28;20216;-75
2022/03/27 05:58:26;;;;;;;18.33;10.00;;;;;;;0.62;100.00;102338.50;5005565;28;20213;-75
2022/03/27 06:00:52;;;;;;;16.50;9.63;;;;;;;0.72;100.00;102338.94;5010061;28;20223;-74
2022/03/27 06:03:19;;;;;;;18.97;10.60;;;;;;;0.67;100.00;102337.84;5006367;28;20204;-74
2022/03/27 06:05:45;;;;;;;15.37;9.93;;;;;;;0.76;100.00;102334.81;5008363;28;20224;-75
2022/03/27 06:08:11;;;;;;;17.87;9.87;;;;;;;0.91;100.00;102337.97;5007148;28;20210;-75
2022/03/27 06:10:39;;;;;;;21.17;10.10;;;;;;;0.96;100.00;102340.75;5006890;28;20570;-75
2022/03/27 06:13:08;;;;;;;21.03;10.30;;;;;;;0.99;100.00;102351.16;5010185;28;20724;-73
2022/03/27 06:15:34;;;;;;;24.43;10.70;;;;;;;1.02;100.00;102346.16;5005996;28;20633;-74
2022/03/27 06:18:01;;;;;;;22.33;11.17;;;;;;;1.05;100.00;102351.38;5002613;28;20225;-75
2022/03/27 06:20:31;;;;;;;18.43;11.13;;;;;;;1.09;100.00;102355.84;5006995;28;20304;-75
2022/03/27 06:22:59;;;;;;;19.83;10.10;;;;;;;1.24;100.00;102352.13;5008658;28;20210;-75
2022/03/27 06:25:27;;;;;;;33.70;11.53;;;;;;;1.31;100.00;102349.00;5003474;28;20226;-75
2022/03/27 06:27:55;;;;;;;24.70;10.40;;;;;;;1.33;100.00;102352.50;5008509;28;20579;-75
2022/03/27 06:30:24;;;;;;;26.20;10.90;;;;;;;1.33;100.00;102348.22;5009014;28;20233;-75
2022/03/27 06:32:52;;;;;;;19.43;11.73;;;;;;;1.43;100.00;102356.31;5006893;28;20299;-75
2022/03/27 06:35:19;;;;;;;20.13;11.37;;;;;;;1.61;100.00;102361.28;5002611;28;20313;-75
2022/03/27 06:37:46;;;;;;;22.37;12.00;;;;;;;1.73;100.00;102355.75;5008385;28;20221;-74
2022/03/27 06:40:14;;;;;;;26.43;10.90;;;;;;;1.73;100.00;102361.75;5004058;28;20199;-74
2022/03/27 06:42:42;;;;;;;22.00;11.53;;;;;;;1.91;100.00;102355.56;5010722;28;20213;-74
2022/03/27 06:45:10;;;;;;;19.13;11.10;;;;;;;1.97;100.00;102366.06;5002313;28;20591;-74
2022/03/27 06:47:39;;;;;;;24.13;14.10;;;;;;;2.05;100.00;102360.38;5009218;28;20264;-74
2022/03/27 06:50:07;;;;;;;22.53;13.00;;;;;;;2.01;100.00;102362.78;5006683;28;20616;-73
2022/03/27 06:52:34;;;;;;;24.97;14.87;;;;;;;2.09;100.00;102369.06;5009932;28;20209;-74
2022/03/27 06:55:01;;;;;;;21.90;14.57;;;;;;;2.22;100.00;102366.13;5005533;28;20853;-75
2022/03/27 06:57:28;;;;;;;19.83;13.03;;;;;;;2.33;100.00;102363.06;5008787;28;20208;-74
2022/03/27 07:05:24;;;;;;;16.83;11.47;;;;;;;2.43;100.00;102370.31;5002695;28;20225;-73
2022/03/27 07:07:50;;;;;;;18.80;11.23;;;;;;;2.52;100.00;102374.91;5005616;28;20202;-75
2022/03/27 07:10:17;;;;;;;20.83;12.67;;;;;;;2.57;100.00;102379.38;5006975;28;20249;-75
2022/03/27 07:12:45;;;;;;;22.63;12.47;;;;;;;2.67;100.00;102385.72;5009086;28;20724;-75
2022/03/27 07:15:13;;;;;;;20.13;11.93;;;;;;;2.75;100.00;102386.00;5005208;28;20322;-74
2022/03/27 07:17:51;;;;;;;20.87;12.60;;;;;;;2.89;100.00;102387.34;5010253;28;20213;-75
2022/03/27 07:20:19;;;;;;;22.13;13.20;;;;;;;3.00;100.00;102393.72;5005231;28;20579;-75
2022/03/27 07:22:46;;;;;;;20.53;12.43;;;;;;;3.11;100.00;102385.47;5007062;28;20869;-75
2022/03/27 07:25:13;;;;;;;18.60;12.47;;;;;;;3.22;100.00;102389.28;5005453;28;20234;-75
2022/03/27 07:27:41;;;;;;;18.83;12.50;;;;;;;3.35;100.00;102390.53;5005058;28;20193;-75
2022/03/27 07:30:09;;;;;;;20.20;13.23;;;;;;;3.55;100.00;102393.72;5010290;28;20762;-75
2022/03/27 07:32:36;;;;;;;22.20;13.77;;;;;;;3.76;100.00;102388.34;5004390;28;20290;-74
2022/03/27 07:35:04;;;;;;;22.07;14.10;;;;;;;3.85;100.00;102392.91;5007391;28;20743;-75
2022/03/27 07:37:33;;;;;;;24.17;14.40;;;;;;;3.96;100.00;102382.09;5003574;28;20215;-74
2022/03/27 07:40:00;;;;;;;26.00;16.20;;;;;;;4.15;100.00;102387.78;5005770;28;20330;-74
2022/03/27 07:42:26;;;;;;;24.17;15.70;;;;;;;4.27;100.00;102382.09;5004140;28;20200;-75
2022/03/27 07:44:53;;;;;;;24.13;15.40;;;;;;;4.42;100.00;102371.31;5005393;28;20219;-74
2022/03/27 07:47:19;;;;;;;23.90;15.53;;;;;;;4.60;100.00;102371.78;5002411;28;20196;-74
2022/03/27 07:49:45;;;;;;;24.77;16.23;;;;;;;4.77;100.00;102377.41;5009096;28;20204;-75
2022/03/27 07:52:13;;;;;;;27.97;16.60;;;;;;;4.83;100.00;102385.31;5002129;28;20205;-75
2022/03/27 07:54:41;;;;;;;24.60;16.23;;;;;;;4.88;100.00;102378.56;5001767;28;20267;-76
2022/03/27 07:57:08;;;;;;;26.07;15.93;;;;;;;5.01;100.00;102378.84;5005019;28;20226;-75
2022/03/27 07:59:34;;;;;;;26.33;16.80;;;;;;;5.15;100.00;102376.63;5000799;28;20212;-75
2022/03/27 08:02:01;;;;;;;24.87;17.13;;;;;;;5.38;100.00;102375.47;5003623;28;20211;-76
2022/03/27 08:04:28;;;;;;;30.83;17.03;;;;;;;5.58;100.00;102382.81;5008228;28;20200;-76
2022/03/27 08:06:55;;;;;;;29.07;16.77;;;;;;;5.67;100.00;102378.69;5004929;28;20220;-75
2022/03/27 08:09:22;;;;;;;28.17;17.30;;;;;;;5.76;100.00;102377.16;5008089;28;21642;-76
2022/03/27 08:11:49;;;;;;;26.07;17.03;;;;;;;5.99;100.00;102378.53;5004936;28;20598;-75
2022/03/27 08:14:15;;;;;;;26.73;15.83;;;;;;;6.14;100.00;102377.09;5011387;28;20228;-75
2022/03/27 08:16:41;;;;;;;22.67;16.13;;;;;;;6.16;100.00;102372.84;5004675;28;20236;-76
2022/03/27 08:19:08;;;;;;;26.90;16.03;;;;;;;6.25;100.00;102373.03;5008983;28;20236;-76
2022/03/27 08:21:34;;;;;;;24.13;15.27;;;;;;;6.39;100.00;102368.13;5003275;28;20213;-76
2022/03/27 08:24:01;;;;;;;27.23;15.20;;;;;;;6.57;100.00;102371.03;5006081;28;20204;-76
2022/03/27 08:29:12;;;;;;;23.47;14.43;;;;;;;6.68;100.00;102380.72;5002875;28;20206;-76
2022/03/27 08:31:39;;;;;;;23.80;15.17;;;;;;;6.75;100.00;102374.81;5002860;28;20224;-74
2022/03/27 08:34:05;;;;;;;21.73;14.23;;;;;;;6.91;100.00;102374.25;5004595;28;20292;-76
2022/03/27 08:36:32;;;;;;;21.00;14.23;;;;;;;7.03;100.00;102377.88;5007175;28;20598;-76
2022/03/27 08:38:59;;;;;;;23.23;13.97;;;;;;;7.08;100.00;102381.41;5002895;28;20236;-75
2022/03/27 08:41:25;;;;;;;22.77;13.47;;;;;;;7.14;100.00;102369.44;4999925;28;20264;-74
2022/03/27 08:43:58;;;;;;;21.43;14.30;;;;;;;7.30;100.00;102373.13;5005070;28;20211;-76
2022/03/27 08:46:26;;;;;;;19.07;14.10;;;;;;;7.38;100.00;102371.50;5002950;28;20229;-76
2022/03/27 08:48:54;;;;;;;20.90;13.67;;;;;;;7.45;100.00;102366.41;5006175;28;20573;-75
2022/03/27 08:51:28;;;;;;;22.37;13.77;;;;;;;7.48;100.00;102375.13;5004880;28;20212;-76
2022/03/27 08:54:00;;;;;;;21.40;13.60;;;;;;;7.63;100.00;102371.84;5005572;28;20188;-74
2022/03/27 08:56:28;;;;;;;20.10;12.93;;;;;;;7.85;100.00;102377.38;5006375;28;20585;-76
2022/03/27 08:58:57;;;;;;;21.03;13.50;;;;;;;8.01;100.00;102381.03;5006228;28;20224;-76
2022/03/27 09:01:24;;;;;;;20.63;13.47;;;;;;;8.07;100.00;102369.00;5001750;28;20204;-73
2022/03/27 09:03:50;;;;;;;16.63;12.67;;;;;;;8.14;100.00;102378.59;5005819;28;20203;-75
2022/03/27 09:06:17;;;;;;;21.33;13.53;;;;;;;8.23;100.00;102372.66;4998958;28;20224;-76
2022/03/27 09:08:43;;;;;;;24.10;13.57;;;;;;;8.28;100.00;102365.75;5002167;28;20197;-76
2022/03/27 09:11:16;;;;;;;17.53;13.20;;;;;;;8.30;100.00;102377.06;5002142;28;20205;-73
2022/03/27 09:13:46;;;;;;;18.70;12.53;;;;;;;8.35;100.00;102369.28;5005084;28;20204;-76
2022/03/27 09:16:14;;;;;;;15.60;11.83;;;;;;;8.48;100.00;102359.94;4999424;28;20243;-74
2022/03/27 09:18:47;;;;;;;15.13;11.00;;;;;;;8.65;98.98;102375.69;4998808;28;20723;-74
2022/03/27 09:21:14;;;;;;;19.43;13.07;;;;;;;8.77;100.00;102362.81;5000494;28;20204;-75
2022/03/27 09:23:40;;;;;;;13.90;9.77;;;;;;;8.97;96.02;102370.81;4996821;28;20204;-76
2022/03/27 09:26:11;;;;;;;13.20;9.90;;;;;;;9.23;88.89;102378.81;5000457;28;20236;-75
2022/03/27 09:28:39;;;;;;;13.23;9.50;;;;;;;9.36;87.65;102384.97;4998890;28;20219;-76
2022/03/27 09:31:07;;;;;;;12.67;9.13;;;;;;;9.33;90.05;102382.34;5003355;28;20215;-76
2022/03/27 09:33:38;;;;;;;11.90;8.00;;;;;;;9.49;84.27;102388.53;4997784;28;20204;-76
2022/03/27 09:36:09;;;;;;;10.23;8.17;;;;;;;9.75;81.37;102390.44;5004124;28;20226;-76
2022/03/27 09:38:36;;;;;;;11.67;8.90;;;;;;;9.80;81.35;102394.78;5001477;28;20244;-75
2022/03/27 09:41:03;;;;;;;13.97;7.90;;;;;;;9.82;79.39;102395.66;5006829;28;20201;-76
2022/03/27 09:43:30;;;;;;;29.57;17.27;;;;;;;9.89;78.37;102383.53;5002983;28;20215;-74
2022/03/27 09:45:58;;;;;;;11.17;7.23;;;;;;;9.95;77.94;102387.91;5005920;28;20220;-75
2022/03/27 09:48:25;;;;;;;12.37;8.27;;;;;;;9.87;77.32;102385.28;5001899;28;20263;-75
2022/03/27 09:50:55;;;;;;;10.40;7.90;;;;;;;9.89;77.35;102378.34;5022982;28;20563;-75
2022/03/27 09:53:25;;;;;;;9.73;8.10;;;;;;;9.93;80.19;102372.25;4999198;28;20207;-76
2022/03/27 09:56:11;;;;;;;11.87;8.97;;;;;;;10.09;78.88;102370.59;5009585;28;20261;-76
2022/03/27 09:58:39;;;;;;;9.63;6.60;;;;;;;10.16;72.48;102379.31;5003941;28;20843;-76
2022/03/27 10:01:10;;;;;;;9.80;6.60;;;;;;;10.31;70.70;102383.72;5016784;28;20206;-75
2022/03/27 10:03:38;;;;;;;7.90;5.60;;;;;;;10.49;66.63;102391.59;5003799;28;20219;-76
2022/03/27 10:06:27;;;;;;;10.03;6.27;;;;;;;10.55;70.49;102377.69;5003238;28;20237;-75
2022/03/27 10:08:54;;;;;;;11.20;7.67;;;;;;;10.54;72.86;102368.16;5003419;28;20681;-76
2022/03/27 10:11:22;;;;;;;12.27;8.27;;;;;;;10.80;71.98;102371.66;5004826;28;20214;-76
2022/03/27 10:13:51;;;;;;;11.30;8.30;;;;;;;10.71;71.90;102371.66;5000401;28;20875;-74
2022/03/27 10:16:18;;;;;;;10.50;8.17;;;;;;;10.76;70.18;102371.66;5005012;28;20232;-76
2022/03/27 10:18:45;;;;;;;11.70;7.87;;;;;;;10.86;69.31;102380.38;4998734;28;20217;-76
2022/03/27 10:21:15;;;;;;;10.30;7.47;;;;;;;10.85;70.40;102379.47;5003520;28;20209;-75
2022/03/27 10:23:44;;;;;;;8.20;6.60;;;;;;;10.98;67.45;102381.22;5000133;28;20209;-76
2022/03/27 10:26:11;;;;;;;9.63;6.77;;;;;;;11.08;70.81;102373.38;5006191;28;20300;-76
2022/03/27 10:28:38;;;;;;;7.43;5.70;;;;;;;11.18;62.22;102382.97;5001043;28;20197;-76
2022/03/27 10:31:06;;;;;;;8.50;5.90;;;;;;;11.20;61.19;102386.44;5001643;28;20209;-76
2022/03/27 10:33:33;;;;;;;8.00;5.63;;;;;;;11.21;58.92;102374.28;4998325;28;20204;-75
2022/03/27 10:36:07;;;;;;;6.47;5.27;;;;;;;11.34;61.95;102373.38;5009910;28;20216;-75
2022/03/27 10:38:46;;;;;;;9.80;6.30;;;;;;;11.39;58.75;102376.84;5010577;28;20237;-74
2022/03/27 10:41:17;;;;;;;13.17;7.90;;;;;;;11.51;59.81;102368.13;5005096;28;20845;-74
2022/03/27 10:43:50;;;;;;;8.43;5.67;;;;;;;11.42;61.60;102363.78;5002259;28;20205;-76
2022/03/27 10:46:19;;;;;;;14.47;10.33;;;;;;;11.61;57.15;102355.88;5003600;28;20282;-74
2022/03/27 10:48:47;;;;;;;7.40;5.27;;;;;;;11.59;56.42;102358.53;5002328;28;20201;-74
2022/03/27 10:51:37;;;;;;;7.13;5.00;;;;;;;11.71;56.23;102349.78;5001174;28;20232;-73
2022/03/27 10:54:07;;;;;;;7.53;5.30;;;;;;;11.86;55.44;102354.09;4998616;28;20486;-73
2022/03/27 10:56:36;;;;;;;8.23;6.13;;;;;;;11.92;53.93;102339.28;5004944;28;20236;-73
2022/03/27 10:59:12;;;;;;;9.17;4.47;;;;;;;11.98;53.77;102346.22;5003369;28;20702;-74
2022/03/27 11:01:41;;;;;;;7.67;5.30;;;;;;;11.97;52.58;102338.38;5004961;28;20202;-72
2022/03/27 11:04:09;;;;;;;8.47;5.50;;;;;;;12.08;53.90;102333.97;5001976;28;20208;-72
2022/03/27 11:06:37;;;;;;;8.93;5.43;;;;;;;12.13;54.98;102321.72;5002878;28;20224;-73
2022/03/27 11:09:07;;;;;;;8.83;5.77;;;;;;;12.27;53.08;102321.66;5001078;28;20214;-72
2022/03/27 11:12:01;;;;;;;8.27;5.37;;;;;;;12.37;50.85;102327.72;5006735;28;20192;-73
2022/03/27 11:17:43;;;;;;;7.03;5.00;;;;;;;12.21;49.38;102330.41;5015400;23;20220;-73
2022/03/27 11:20:48;;;;;;;7.20;4.87;;;;;;;12.13;51.75;102314.75;4999235;28;20269;-72
2022/03/27 11:23:27;;;;;;;7.17;5.10;;;;;;;12.09;51.92;102309.56;5001110;28;20216;-72
2022/03/27 11:25:56;;;;;;;7.90;5.37;;;;;;;12.12;51.41;102312.16;5002864;28;20210;-73
2022/03/27 11:28:22;;;;;;;8.43;5.03;;;;;;;12.08;53.19;102299.97;5009351;28;20224;-72
2022/03/27 11:31:18;;;;;;;9.60;6.13;;;;;;;12.10;52.77;102299.09;5004951;28;20223;-73